Time;durP1;ratioP1;P1;durP2;ratioP2;P2;SDS_P1;SDS_P2;PMS_P1;PMS_P2;Temp;Humidity;BMP_temperature;BMP_pressure;BME280_temperature;BME280_humidity;BME280_pressure;Samples;Min_cycle;Max_cycle;Signal;HPM_P1;HPM_P2
2023/05/28 00:02:14;;;;;;;13.80;7.07;;;;;;;;;;5069342;28;20653;-67
2023/05/28 00:04:42;;;;;;;12.53;6.73;;;;;;;;;;5042300;28;20593;-68
2023/05/28 00:07:12;;;;;;;9.90;6.80;;;;;;;;;;5067740;28;20654;-68
2023/05/28 00:09:40;;;;;;;12.93;6.30;;;;;;;;;;5053757;28;20690;-68
2023/05/28 00:12:09;;;;;;;13.43;5.90;;;;;;;;;;5063586;28;20641;-68
2023/05/28 00:14:37;;;;;;;9.03;5.80;;;;;;;;;;5057398;28;20627;-68
2023/05/28 00:17:06;;;;;;;11.93;6.50;;;;;;;;;;5059146;28;21209;-67
2023/05/28 00:19:35;;;;;;;9.13;7.10;;;;;;;;;;5075643;28;20581;-65
2023/05/28 00:22:03;;;;;;;8.23;5.23;;;;;;;;;;5074790;28;20683;-67
2023/05/28 00:24:33;;;;;;;11.27;5.27;;;;;;;;;;5054918;28;20627;-67
2023/05/28 00:27:02;;;;;;;8.97;5.40;;;;;;;;;;5074508;28;20625;-67
2023/05/28 00:29:31;;;;;;;13.83;6.33;;;;;;;;;;5069128;28;20585;-67
2023/05/28 00:31:59;;;;;;;10.20;6.03;;;;;;;;;;5054142;28;20611;-67
2023/05/28 00:34:27;;;;;;;7.80;5.60;;;;;;;;;;5055722;28;20609;-67
2023/05/28 00:36:56;;;;;;;9.43;6.10;;;;;;;;;;5052731;28;20589;-67
2023/05/28 00:39:24;;;;;;;7.87;5.23;;;;;;;;;;5055154;28;21012;-68
2023/05/28 00:42:02;;;;;;;8.53;5.50;;;;;;;;;;5054129;28;20719;-67
2023/05/28 00:44:32;;;;;;;12.40;6.90;;;;;;;;;;5055091;28;20953;-67
2023/05/28 00:47:00;;;;;;;11.93;6.00;;;;;;;;;;5053561;28;20612;-67
2023/05/28 00:49:29;;;;;;;8.00;5.93;;;;;;;;;;5054770;28;20981;-68
2023/05/28 00:51:58;;;;;;;16.87;6.03;;;;;;;;;;5061173;28;20607;-67
2023/05/28 00:54:26;;;;;;;8.70;5.40;;;;;;;;;;5073209;28;21171;-67
2023/05/28 00:56:57;;;;;;;12.97;5.77;;;;;;;;;;5071938;28;20662;-68
2023/05/28 00:59:26;;;;;;;6.87;5.67;;;;;;;;;;5058251;28;20610;-68
2023/05/28 01:01:55;;;;;;;9.07;5.03;;;;;;;;;;5055337;28;20661;-67
2023/05/28 01:04:24;;;;;;;10.43;6.40;;;;;;;;;;5058740;28;20633;-68
2023/05/28 01:06:52;;;;;;;8.33;5.40;;;;;;;;;;5052497;28;20637;-67
2023/05/28 01:09:20;;;;;;;7.90;5.30;;;;;;;;;;5056734;28;20621;-67
2023/05/28 01:11:51;;;;;;;11.63;6.27;;;;;;;;;;5060809;28;20622;-66
2023/05/28 01:14:19;;;;;;;12.63;6.40;;;;;;;;;;5065757;28;20677;-67
2023/05/28 01:16:49;;;;;;;9.03;5.57;;;;;;;;;;5073916;28;20584;-67
2023/05/28 01:19:18;;;;;;;11.30;5.83;;;;;;;;;;5052893;28;20687;-67
2023/05/28 01:21:48;;;;;;;12.60;6.20;;;;;;;;;;5069280;28;20592;-66
2023/05/28 01:24:18;;;;;;;10.17;5.67;;;;;;;;;;5052426;28;20615;-67
2023/05/28 01:26:47;;;;;;;10.30;6.03;;;;;;;;;;5052626;28;20615;-66
2023/05/28 01:29:16;;;;;;;10.10;6.33;;;;;;;;;;5054353;28;21139;-67
2023/05/28 01:31:45;;;;;;;10.97;6.03;;;;;;;;;;5073945;28;20616;-67
2023/05/28 01:34:14;;;;;;;11.07;6.03;;;;;;;;;;5072545;28;20605;-67
2023/05/28 01:36:45;;;;;;;9.83;5.87;;;;;;;;;;5072370;28;20620;-67
2023/05/28 01:39:16;;;;;;;10.43;5.90;;;;;;;;;;5073618;28;20565;-67
2023/05/28 01:41:46;;;;;;;9.23;5.60;;;;;;;;;;5072644;28;20561;-67
2023/05/28 01:44:16;;;;;;;12.00;6.30;;;;;;;;;;5072445;28;20622;-67
2023/05/28 01:46:45;;;;;;;8.60;5.63;;;;;;;;;;5071152;28;20622;-67
2023/05/28 01:49:14;;;;;;;9.27;5.80;;;;;;;;;;5073199;28;20601;-67
2023/05/28 01:51:42;;;;;;;12.87;6.00;;;;;;;;;;5060935;28;20649;-67
2023/05/28 01:54:11;;;;;;;8.03;4.50;;;;;;;;;;5071720;28;20626;-67
2023/05/28 01:56:39;;;;;;;16.63;5.80;;;;;;;;;;5071289;28;20618;-67
2023/05/28 01:59:09;;;;;;;18.73;6.20;;;;;;;;;;5072229;28;20610;-66
2023/05/28 02:01:38;;;;;;;7.30;5.20;;;;;;;;;;5055667;28;21010;-66
2023/05/28 02:04:09;;;;;;;6.17;5.57;;;;;;;;;;5060690;28;20657;-67
2023/05/28 02:06:40;;;;;;;7.73;5.53;;;;;;;;;;5068590;28;20727;-67
2023/05/28 02:09:08;;;;;;;7.67;5.40;;;;;;;;;;5054598;28;20603;-66
2023/05/28 02:11:36;;;;;;;9.90;5.90;;;;;;;;;;5066101;28;20627;-66
2023/05/28 02:14:05;;;;;;;8.60;5.70;;;;;;;;;;5063499;28;20626;-67
2023/05/28 02:16:35;;;;;;;9.13;5.07;;;;;;;;;;5071760;28;20645;-67
2023/05/28 02:19:04;;;;;;;12.77;6.47;;;;;;;;;;5055656;28;20592;-67
2023/05/28 02:21:34;;;;;;;11.00;6.40;;;;;;;;;;5051538;28;20605;-67
2023/05/28 02:24:02;;;;;;;12.97;6.00;;;;;;;;;;5070936;28;21001;-67
2023/05/28 02:26:31;;;;;;;9.53;5.47;;;;;;;;;;5053786;28;20961;-66
2023/05/28 02:29:01;;;;;;;8.60;5.10;;;;;;;;;;5052779;28;20613;-67
2023/05/28 02:31:30;;;;;;;12.50;6.13;;;;;;;;;;5052765;28;20588;-67
2023/05/28 02:33:59;;;;;;;10.83;6.20;;;;;;;;;;5052310;28;20642;-67
2023/05/28 02:36:29;;;;;;;9.10;5.20;;;;;;;;;;5064190;28;20601;-67
2023/05/28 02:38:59;;;;;;;5.97;5.07;;;;;;;;;;5071042;28;20585;-67
2023/05/28 02:41:28;;;;;;;9.20;5.00;;;;;;;;;;5070578;28;20636;-67
2023/05/28 02:43:58;;;;;;;8.10;5.80;;;;;;;;;;5060698;28;20651;-67
2023/05/28 02:46:27;;;;;;;10.10;5.00;;;;;;;;;;5068740;28;20612;-66
2023/05/28 02:48:55;;;;;;;8.30;6.17;;;;;;;;;;5066380;28;20634;-67
2023/05/28 02:51:27;;;;;;;12.53;5.87;;;;;;;;;;5051045;28;20660;-67
2023/05/28 02:54:01;;;;;;;15.63;5.30;;;;;;;;;;5051085;28;20549;-67
2023/05/28 02:56:29;;;;;;;9.90;5.50;;;;;;;;;;5052141;28;20211;-68
2023/05/28 02:58:58;;;;;;;9.20;5.53;;;;;;;;;;5051628;28;20618;-67
2023/05/28 03:01:27;;;;;;;8.03;6.27;;;;;;;;;;5058775;28;21029;-67
2023/05/28 03:03:56;;;;;;;10.47;5.10;;;;;;;;;;5069647;28;20633;-67
2023/05/28 03:06:24;;;;;;;8.80;5.63;;;;;;;;;;5069774;28;21222;-67
2023/05/28 03:08:57;;;;;;;11.43;5.67;;;;;;;;;;5071680;28;20573;-67
2023/05/28 03:11:25;;;;;;;10.13;5.80;;;;;;;;;;5062111;28;20661;-67
2023/05/28 03:13:53;;;;;;;7.97;5.30;;;;;;;;;;5071823;28;20577;-67
2023/05/28 03:16:25;;;;;;;12.33;5.63;;;;;;;;;;5069298;28;20667;-67
2023/05/28 03:18:53;;;;;;;8.27;5.10;;;;;;;;;;5050417;28;20553;-67
2023/05/28 03:21:22;;;;;;;9.10;5.07;;;;;;;;;;5050813;28;20577;-67
2023/05/28 03:23:50;;;;;;;9.40;4.77;;;;;;;;;;5063942;28;21011;-67
2023/05/28 03:26:39;;;;;;;12.57;6.00;;;;;;;;;;5066924;28;20574;-67
2023/05/28 03:29:08;;;;;;;9.20;5.70;;;;;;;;;;5049761;28;20624;-67
2023/05/28 03:31:46;;;;;;;8.50;5.20;;;;;;;;;;5052428;28;20581;-66
2023/05/28 03:34:17;;;;;;;6.50;5.20;;;;;;;;;;5069723;28;21268;-67
2023/05/28 03:36:45;;;;;;;8.40;5.60;;;;;;;;;;5070582;28;20608;-67
2023/05/28 03:39:13;;;;;;;8.87;5.77;;;;;;;;;;5069772;28;20601;-67
2023/05/28 03:41:44;;;;;;;8.03;5.00;;;;;;;;;;5068705;28;20597;-67
2023/05/28 03:44:12;;;;;;;6.23;5.00;;;;;;;;;;5063878;28;20641;-67
2023/05/28 03:46:41;;;;;;;8.77;5.33;;;;;;;;;;5060615;28;21115;-66
2023/05/28 03:49:10;;;;;;;8.03;6.33;;;;;;;;;;5058837;28;20598;-67
2023/05/28 03:51:38;;;;;;;10.40;5.13;;;;;;;;;;5068993;28;20624;-67
2023/05/28 03:54:06;;;;;;;10.40;5.10;;;;;;;;;;5064450;28;20623;-66
2023/05/28 03:56:36;;;;;;;7.10;5.80;;;;;;;;;;5050057;28;20623;-65
2023/05/28 03:59:07;;;;;;;18.48;5.70;;;;;;;;;;5051647;28;20939;-64
2023/05/28 04:01:36;;;;;;;7.43;5.30;;;;;;;;;;5049434;28;20253;-67
2023/05/28 04:04:04;;;;;;;9.60;5.37;;;;;;;;;;5049308;28;20665;-66
2023/05/28 04:06:34;;;;;;;8.30;5.70;;;;;;;;;;5048953;28;20625;-67
2023/05/28 04:09:02;;;;;;;9.60;6.35;;;;;;;;;;5063300;28;20599;-67
2023/05/28 04:11:31;;;;;;;9.77;5.88;;;;;;;;;;5061595;28;20220;-67
2023/05/28 04:13:59;;;;;;;7.00;4.87;;;;;;;;;;5061617;28;20265;-67
2023/05/28 04:16:29;;;;;;;5.87;5.23;;;;;;;;;;5050907;28;20589;-67
2023/05/28 04:18:57;;;;;;;8.33;5.63;;;;;;;;;;5063744;28;20602;-67
2023/05/28 04:21:25;;;;;;;9.00;4.73;;;;;;;;;;5069262;28;21061;-66
2023/05/28 04:23:54;;;;;;;16.33;5.57;;;;;;;;;;5069821;28;21041;-67
2023/05/28 04:26:23;;;;;;;9.13;5.47;;;;;;;;;;5070325;28;20616;-67
2023/05/28 04:28:52;;;;;;;8.03;5.00;;;;;;;;;;5070992;28;20616;-67
2023/05/28 04:31:21;;;;;;;9.47;5.53;;;;;;;;;;5056258;28;20585;-67
2023/05/28 04:33:51;;;;;;;7.47;5.53;;;;;;;;;;5050715;28;21027;-67
2023/05/28 04:36:19;;;;;;;10.90;5.90;;;;;;;;;;5055163;28;20630;-67
2023/05/28 04:38:48;;;;;;;11.07;5.17;;;;;;;;;;5069811;28;20597;-67
2023/05/28 04:41:16;;;;;;;12.53;4.83;;;;;;;;;;5069851;28;20577;-67
2023/05/28 04:43:45;;;;;;;12.30;5.93;;;;;;;;;;5070922;28;20628;-67
2023/05/28 04:46:14;;;;;;;10.50;5.83;;;;;;;;;;5068887;28;21151;-67
2023/05/28 04:48:42;;;;;;;7.90;5.17;;;;;;;;;;5059831;28;20661;-67
2023/05/28 04:51:13;;;;;;;8.97;5.40;;;;;;;;;;5073067;28;20602;-67
2023/05/28 04:53:43;;;;;;;11.00;5.87;;;;;;;;;;5073257;28;20584;-67
2023/05/28 04:56:12;;;;;;;12.17;6.07;;;;;;;;;;5058260;28;20625;-67
2023/05/28 04:58:40;;;;;;;7.47;5.40;;;;;;;;;;5071718;28;20957;-67
2023/05/28 05:01:09;;;;;;;10.30;6.00;;;;;;;;;;5071951;28;20694;-67
2023/05/28 05:03:38;;;;;;;7.10;5.07;;;;;;;;;;5069632;28;20675;-67
2023/05/28 05:06:08;;;;;;;6.20;5.40;;;;;;;;;;5072045;28;20611;-67
2023/05/28 05:08:37;;;;;;;8.57;5.47;;;;;;;;;;5073012;28;20591;-66
2023/05/28 05:11:06;;;;;;;7.90;5.20;;;;;;;;;;5054353;28;21009;-64
2023/05/28 05:13:34;;;;;;;6.87;5.37;;;;;;;;;;5068446;28;20634;-67
2023/05/28 05:16:03;;;;;;;8.10;4.70;;;;;;;;;;5064074;28;20621;-66
2023/05/28 05:18:31;;;;;;;7.53;5.50;;;;;;;;;;5058004;28;21265;-68
2023/05/28 05:21:00;;;;;;;10.93;6.03;;;;;;;;;;5054925;28;20684;-67
2023/05/28 05:23:29;;;;;;;7.33;4.80;;;;;;;;;;5058229;28;20981;-67
2023/05/28 05:25:58;;;;;;;7.50;5.40;;;;;;;;;;5071847;28;20654;-67
2023/05/28 05:28:26;;;;;;;7.40;5.00;;;;;;;;;;5073491;28;20600;-67
2023/05/28 05:30:55;;;;;;;15.60;5.53;;;;;;;;;;5059085;28;20608;-67
2023/05/28 05:33:23;;;;;;;10.40;5.23;;;;;;;;;;5069648;28;20618;-67
2023/05/28 05:36:21;;;;;;;8.67;5.40;;;;;;;;;;5036356;28;20999;-67
2023/05/28 05:39:00;;;;;;;9.17;8.03;;;;;;;;;;5058248;28;20599;-67
2023/05/28 05:41:49;;;;;;;7.43;5.60;;;;;;;;;;5054476;28;21143;-67
2023/05/28 05:44:23;;;;;;;11.47;4.93;;;;;;;;;;5065245;28;20660;-67
2023/05/28 05:46:51;;;;;;;6.07;5.17;;;;;;;;;;5059635;28;20634;-67
2023/05/28 05:49:20;;;;;;;9.47;5.30;;;;;;;;;;5061046;28;20618;-67
2023/05/28 05:51:48;;;;;;;8.50;5.57;;;;;;;;;;5062480;28;20622;-67
2023/05/28 05:54:17;;;;;;;11.30;5.27;;;;;;;;;;5056906;28;20623;-67
2023/05/28 05:56:45;;;;;;;8.10;6.00;;;;;;;;;;5062474;28;20640;-67
2023/05/28 05:59:15;;;;;;;15.20;5.70;;;;;;;;;;5059161;28;20652;-67
2023/05/28 06:01:45;;;;;;;12.67;6.30;;;;;;;;;;5050993;28;20608;-67
2023/05/28 06:04:14;;;;;;;10.10;5.03;;;;;;;;;;5052703;28;20672;-67
2023/05/28 06:07:06;;;;;;;10.03;5.77;;;;;;;;;;5061038;28;20654;-67
2023/05/28 06:09:51;;;;;;;6.50;4.83;;;;;;;;;;5060397;28;20678;-67
2023/05/28 06:12:26;;;;;;;7.40;4.97;;;;;;;;;;5060526;28;20691;-67
2023/05/28 06:14:56;;;;;;;8.90;5.60;;;;;;;;;;5061959;28;20611;-67
2023/05/28 06:17:24;;;;;;;7.63;5.00;;;;;;;;;;5052504;28;20625;-67
2023/05/28 06:19:52;;;;;;;10.77;5.50;;;;;;;;;;5061360;28;20619;-67
2023/05/28 06:22:21;;;;;;;6.57;5.60;;;;;;;;;;5061834;28;20623;-67
2023/05/28 06:24:52;;;;;;;5.67;5.03;;;;;;;;;;5060500;28;20658;-67
2023/05/28 06:27:20;;;;;;;6.53;5.40;;;;;;;;;;5059993;28;21153;-67
2023/05/28 06:29:49;;;;;;;9.40;5.67;;;;;;;;;;5056962;28;20623;-67
2023/05/28 06:32:20;;;;;;;7.13;5.50;;;;;;;;;;5064411;28;20623;-67
2023/05/28 06:34:48;;;;;;;7.27;5.90;;;;;;;;;;5069825;28;20632;-68
2023/05/28 06:37:16;;;;;;;6.20;5.47;;;;;;;;;;5061910;28;20627;-67
2023/05/28 06:39:44;;;;;;;10.73;6.40;;;;;;;;;;5069376;28;20637;-68
2023/05/28 06:42:14;;;;;;;12.70;6.23;;;;;;;;;;5070647;28;20603;-68
2023/05/28 06:45:00;;;;;;;6.83;5.63;;;;;;;;;;5059353;28;20668;-68
2023/05/28 06:47:29;;;;;;;6.63;5.60;;;;;;;;;;5055346;28;20615;-67
2023/05/28 06:49:58;;;;;;;10.67;5.53;;;;;;;;;;5068287;28;20981;-67
2023/05/28 06:52:27;;;;;;;15.00;5.57;;;;;;;;;;5066989;28;21012;-67
2023/05/28 06:54:55;;;;;;;8.20;6.23;;;;;;;;;;5070584;28;20630;-68
2023/05/28 06:57:24;;;;;;;9.43;5.47;;;;;;;;;;5069075;28;20638;-68
2023/05/28 06:59:53;;;;;;;7.07;5.47;;;;;;;;;;5069688;28;20601;-68
2023/05/28 07:02:42;;;;;;;7.17;5.57;;;;;;;;;;5057880;28;20613;-67
2023/05/28 07:05:36;;;;;;;8.73;6.50;;;;;;;;;;5056184;28;20674;-67
2023/05/28 07:08:05;;;;;;;9.60;5.63;;;;;;;;;;5055814;28;21078;-68
2023/05/28 07:10:33;;;;;;;9.80;6.47;;;;;;;;;;5059019;28;20685;-68
2023/05/28 07:13:02;;;;;;;6.60;6.00;;;;;;;;;;5059457;28;20608;-68
2023/05/28 07:15:31;;;;;;;7.83;6.50;;;;;;;;;;5070682;28;20659;-68
2023/05/28 07:18:00;;;;;;;7.33;6.53;;;;;;;;;;5063709;28;20636;-68
2023/05/28 07:20:29;;;;;;;6.97;5.90;;;;;;;;;;5050989;28;20621;-67
2023/05/28 07:23:11;;;;;;;6.80;6.13;;;;;;;;;;5051325;28;20610;-68
2023/05/28 07:25:41;;;;;;;8.40;7.33;;;;;;;;;;5050665;28;20641;-69
2023/05/28 07:28:09;;;;;;;7.80;6.20;;;;;;;;;;5049408;28;20943;-68
2023/05/28 07:30:39;;;;;;;7.43;6.17;;;;;;;;;;5034055;28;20621;-68
2023/05/28 07:33:10;;;;;;;9.40;6.33;;;;;;;;;;5052426;28;20611;-68
2023/05/28 07:35:39;;;;;;;10.93;6.23;;;;;;;;;;5050379;28;20575;-69
2023/05/28 07:38:10;;;;;;;7.00;6.30;;;;;;;;;;5057668;28;20638;-68
2023/05/28 07:40:38;;;;;;;7.30;6.40;;;;;;;;;;5070348;28;20586;-68
2023/05/28 07:43:17;;;;;;;8.90;6.30;;;;;;;;;;5059834;28;20613;-68
2023/05/28 07:45:45;;;;;;;9.27;6.30;;;;;;;;;;5055114;28;20665;-68
2023/05/28 07:48:16;;;;;;;9.03;7.00;;;;;;;;;;5059289;28;20622;-68
2023/05/28 07:51:04;;;;;;;8.20;5.77;;;;;;;;;;5058891;28;20636;-67
2023/05/28 07:53:39;;;;;;;7.47;6.17;;;;;;;;;;5058379;28;20610;-68
2023/05/28 07:56:11;;;;;;;6.63;6.03;;;;;;;;;;5056226;28;21145;-67
2023/05/28 07:58:43;;;;;;;7.87;6.40;;;;;;;;;;5049745;28;20987;-69
2023/05/28 08:01:12;;;;;;;7.10;6.43;;;;;;;;;;5057761;28;20614;-68
2023/05/28 08:03:42;;;;;;;7.27;6.57;;;;;;;;;;5063446;28;20671;-68
2023/05/28 08:06:10;;;;;;;8.83;5.73;;;;;;;;;;5068974;28;20656;-68
2023/05/28 08:08:41;;;;;;;12.17;6.70;;;;;;;;;;5050152;28;20611;-68
2023/05/28 08:11:13;;;;;;;9.97;6.30;;;;;;;;;;5061026;28;20657;-68
2023/05/28 08:13:41;;;;;;;10.90;6.73;;;;;;;;;;5052573;28;20640;-67
2023/05/28 08:16:12;;;;;;;6.43;5.90;;;;;;;;;;5054007;28;20626;-68
2023/05/28 08:19:01;;;;;;;8.43;6.00;;;;;;;;;;5067200;28;20941;-69
2023/05/28 08:21:30;;;;;;;13.23;7.03;;;;;;;;;;5051124;28;20603;-70
2023/05/28 08:24:00;;;;;;;7.30;6.50;;;;;;;;;;5038292;28;20655;-68
2023/05/28 08:26:31;;;;;;;6.63;5.60;;;;;;;;;;5055310;28;20653;-66
2023/05/28 08:29:00;;;;;;;8.40;6.70;;;;;;;;;;5059336;28;20622;-68
2023/05/28 08:31:29;;;;;;;8.03;6.27;;;;;;;;;;5045103;28;20595;-67
2023/05/28 08:34:22;;;;;;;12.63;6.70;;;;;;;;;;5075196;28;20570;-67
2023/05/28 08:36:51;;;;;;;9.67;6.80;;;;;;;;;;5073420;28;20610;-68
2023/05/28 08:39:26;;;;;;;12.50;6.97;;;;;;;;;;5070615;28;20613;-67
2023/05/28 08:41:55;;;;;;;8.00;6.63;;;;;;;;;;5073272;28;20982;-68
2023/05/28 08:44:24;;;;;;;7.03;6.10;;;;;;;;;;5073395;28;20671;-67
2023/05/28 08:46:53;;;;;;;8.93;6.17;;;;;;;;;;5072547;28;20657;-67
2023/05/28 08:49:39;;;;;;;7.80;6.70;;;;;;;;;;5073024;28;20588;-67
2023/05/28 08:52:10;;;;;;;11.50;7.17;;;;;;;;;;5068857;28;20642;-68
2023/05/28 08:54:39;;;;;;;9.93;7.47;;;;;;;;;;5053124;28;20583;-67
2023/05/28 08:57:08;;;;;;;7.80;6.80;;;;;;;;;;5052876;28;20668;-68
2023/05/28 08:59:46;;;;;;;8.20;7.37;;;;;;;;;;5053123;28;20573;-68
2023/05/28 09:02:15;;;;;;;9.67;6.50;;;;;;;;;;5053394;28;20622;-67
2023/05/28 09:04:46;;;;;;;9.40;6.93;;;;;;;;;;5071909;28;20703;-67
2023/05/28 09:07:16;;;;;;;8.53;6.37;;;;;;;;;;5073572;28;20658;-67
2023/05/28 09:09:56;;;;;;;12.63;6.50;;;;;;;;;;5043317;28;20669;-68
2023/05/28 09:12:26;;;;;;;7.40;6.70;;;;;;;;;;5069389;28;20613;-67
2023/05/28 09:15:01;;;;;;;9.13;7.37;;;;;;;;;;5069594;28;20639;-67
2023/05/28 09:17:34;;;;;;;9.33;7.30;;;;;;;;;;5052752;28;20610;-68
2023/05/28 09:20:12;;;;;;;8.13;7.33;;;;;;;;;;5052777;28;21157;-68
2023/05/28 09:22:41;;;;;;;9.87;6.83;;;;;;;;;;5052846;28;20589;-67
2023/05/28 09:25:24;;;;;;;8.70;6.50;;;;;;;;;;5052160;28;21212;-68
2023/05/28 09:28:01;;;;;;;11.70;7.17;;;;;;;;;;5053588;28;21139;-68
2023/05/28 09:30:29;;;;;;;8.57;7.67;;;;;;;;;;5053149;28;20611;-67
2023/05/28 09:32:58;;;;;;;12.53;6.73;;;;;;;;;;5053618;28;20625;-68
2023/05/28 09:35:29;;;;;;;11.30;7.73;;;;;;;;;;5053006;28;20615;-67
2023/05/28 09:38:01;;;;;;;7.07;6.40;;;;;;;;;;5053070;28;20575;-67
2023/05/28 09:40:30;;;;;;;10.23;6.83;;;;;;;;;;5053195;28;20594;-67
2023/05/28 09:42:58;;;;;;;11.83;7.00;;;;;;;;;;5053850;28;20622;-68
2023/05/28 09:45:29;;;;;;;13.63;7.60;;;;;;;;;;5051984;28;20937;-68
2023/05/28 09:47:57;;;;;;;10.33;7.50;;;;;;;;;;5053458;28;21031;-68
2023/05/28 09:50:26;;;;;;;9.40;8.13;;;;;;;;;;5052368;28;20976;-67
2023/05/28 09:52:56;;;;;;;10.30;7.17;;;;;;;;;;5053096;28;20618;-67
2023/05/28 09:55:25;;;;;;;10.43;7.20;;;;;;;;;;5053328;28;20606;-67
2023/05/28 09:57:57;;;;;;;12.20;7.03;;;;;;;;;;5053072;28;20676;-66
2023/05/28 10:00:31;;;;;;;7.23;6.53;;;;;;;;;;5052965;28;21359;-66
2023/05/28 10:03:04;;;;;;;9.97;7.57;;;;;;;;;;5052412;28;21144;-69
2023/05/28 10:05:34;;;;;;;8.10;7.17;;;;;;;;;;5052733;28;20575;-67
2023/05/28 10:08:05;;;;;;;7.83;7.23;;;;;;;;;;5052877;28;21236;-67
2023/05/28 10:10:33;;;;;;;8.23;7.40;;;;;;;;;;5053174;28;20999;-68
2023/05/28 10:13:02;;;;;;;8.97;7.40;;;;;;;;;;5053167;28;20629;-68
2023/05/28 10:15:30;;;;;;;13.90;7.73;;;;;;;;;;5052361;28;20614;-67
2023/05/28 10:17:59;;;;;;;8.17;7.20;;;;;;;;;;5052909;28;20607;-68
2023/05/28 10:20:27;;;;;;;10.60;7.57;;;;;;;;;;5052465;28;21125;-67
2023/05/28 10:22:55;;;;;;;9.53;7.60;;;;;;;;;;5052787;28;20623;-68
2023/05/28 10:25:25;;;;;;;11.43;7.07;;;;;;;;;;5051534;28;20604;-68
2023/05/28 10:27:58;;;;;;;9.60;8.70;;;;;;;;;;5052438;28;20720;-69
2023/05/28 10:30:32;;;;;;;10.10;7.93;;;;;;;;;;5052542;28;20583;-68
2023/05/28 10:33:01;;;;;;;8.17;6.63;;;;;;;;;;5052338;28;21014;-68
2023/05/28 10:35:29;;;;;;;10.00;7.63;;;;;;;;;;5052707;28;20617;-68
2023/05/28 10:38:07;;;;;;;11.63;8.10;;;;;;;;;;5052425;28;20642;-68
2023/05/28 10:40:37;;;;;;;9.37;6.93;;;;;;;;;;5052622;28;20579;-64
2023/05/28 10:43:05;;;;;;;10.77;7.07;;;;;;;;;;5051808;28;20623;-65
2023/05/28 10:45:36;;;;;;;7.43;6.47;;;;;;;;;;5051883;28;21242;-68
2023/05/28 10:48:05;;;;;;;9.77;6.60;;;;;;;;;;5054444;28;20650;-67
2023/05/28 10:50:34;;;;;;;8.00;6.73;;;;;;;;;;5052733;28;20611;-67
2023/05/28 10:53:06;;;;;;;9.10;7.23;;;;;;;;;;5051736;28;20996;-68
2023/05/28 10:55:51;;;;;;;10.13;8.50;;;;;;;;;;5052445;28;20956;-67
2023/05/28 10:58:24;;;;;;;7.77;7.07;;;;;;;;;;5051763;28;20948;-68
2023/05/28 11:00:52;;;;;;;8.33;7.13;;;;;;;;;;5050397;28;21152;-67
2023/05/28 11:03:35;;;;;;;15.90;7.83;;;;;;;;;;5050418;28;20631;-68
2023/05/28 11:06:05;;;;;;;8.30;7.30;;;;;;;;;;5051567;28;20684;-68
2023/05/28 11:08:33;;;;;;;8.87;6.70;;;;;;;;;;5050377;28;20639;-67
2023/05/28 11:11:03;;;;;;;7.43;6.73;;;;;;;;;;5052245;28;20640;-68
2023/05/28 11:13:31;;;;;;;7.63;6.83;;;;;;;;;;5060429;28;21030;-67
2023/05/28 11:16:07;;;;;;;7.63;6.87;;;;;;;;;;5071722;28;20609;-68
2023/05/28 11:18:35;;;;;;;11.40;7.17;;;;;;;;;;5054948;28;20602;-68
2023/05/28 11:21:04;;;;;;;9.90;8.23;;;;;;;;;;5052161;28;20964;-68
2023/05/28 11:23:32;;;;;;;7.57;6.80;;;;;;;;;;5050298;28;20613;-68
2023/05/28 11:26:01;;;;;;;7.83;7.13;;;;;;;;;;5050900;28;20955;-68
2023/05/28 11:28:30;;;;;;;8.80;7.33;;;;;;;;;;5049303;28;20754;-66
2023/05/28 11:30:59;;;;;;;7.73;6.93;;;;;;;;;;5051468;28;21010;-66
2023/05/28 11:33:30;;;;;;;8.37;7.47;;;;;;;;;;5049242;28;20712;-66
2023/05/28 11:36:02;;;;;;;7.83;7.13;;;;;;;;;;5051674;28;20618;-67
2023/05/28 11:38:30;;;;;;;8.30;7.60;;;;;;;;;;5050191;28;21137;-66
2023/05/28 11:41:02;;;;;;;10.07;7.47;;;;;;;;;;5051627;28;20607;-66
2023/05/28 11:43:31;;;;;;;8.27;7.47;;;;;;;;;;5050781;28;20672;-67
2023/05/28 11:46:00;;;;;;;8.67;7.87;;;;;;;;;;5050297;28;20618;-67
2023/05/28 11:48:28;;;;;;;8.03;7.43;;;;;;;;;;5050947;28;21222;-66
2023/05/28 11:51:03;;;;;;;9.23;7.80;;;;;;;;;;5049786;28;20637;-67
2023/05/28 11:53:41;;;;;;;9.03;8.13;;;;;;;;;;5051446;28;20593;-67
2023/05/28 11:56:10;;;;;;;8.50;7.70;;;;;;;;;;5050765;28;20597;-67
2023/05/28 11:58:43;;;;;;;10.90;8.13;;;;;;;;;;5050911;28;20611;-67
2023/05/28 12:01:14;;;;;;;9.60;7.90;;;;;;;;;;5049517;28;20593;-67
2023/05/28 12:03:44;;;;;;;8.83;7.70;;;;;;;;;;5050631;28;20574;-67
2023/05/28 12:06:13;;;;;;;7.87;7.27;;;;;;;;;;5033257;28;20590;-67
2023/05/28 12:08:41;;;;;;;8.27;7.43;;;;;;;;;;5051460;28;20696;-67
2023/05/28 12:11:10;;;;;;;9.10;8.30;;;;;;;;;;5049657;28;20648;-67
2023/05/28 12:13:40;;;;;;;11.33;8.20;;;;;;;;;;5050955;28;20623;-66
2023/05/28 12:16:09;;;;;;;8.47;7.57;;;;;;;;;;5050540;28;20967;-67
2023/05/28 12:18:42;;;;;;;8.93;7.83;;;;;;;;;;5049415;28;20619;-67
2023/05/28 12:21:18;;;;;;;7.63;7.03;;;;;;;;;;5050929;28;20585;-67
2023/05/28 12:23:46;;;;;;;7.97;7.13;;;;;;;;;;5049703;28;20583;-66
2023/05/28 12:26:15;;;;;;;7.80;6.80;;;;;;;;;;5050690;28;20677;-67
2023/05/28 12:28:45;;;;;;;8.03;7.43;;;;;;;;;;5050584;28;20654;-67
2023/05/28 12:31:14;;;;;;;8.43;7.57;;;;;;;;;;5051365;28;20613;-67
2023/05/28 12:33:42;;;;;;;9.63;7.43;;;;;;;;;;5051072;28;20611;-67
2023/05/28 12:36:11;;;;;;;8.83;7.63;;;;;;;;;;5050589;28;20986;-66
2023/05/28 12:38:39;;;;;;;8.70;7.87;;;;;;;;;;5050723;28;20619;-67
2023/05/28 12:41:08;;;;;;;8.50;7.60;;;;;;;;;;5050616;28;20617;-67
2023/05/28 12:43:36;;;;;;;8.23;7.60;;;;;;;;;;5050632;28;20637;-66
2023/05/28 12:46:05;;;;;;;7.87;7.20;;;;;;;;;;5050717;28;20637;-68
2023/05/28 12:48:33;;;;;;;8.50;7.70;;;;;;;;;;5051838;28;20659;-67
2023/05/28 12:51:03;;;;;;;9.17;7.77;;;;;;;;;;5049818;28;20636;-67
2023/05/28 12:53:31;;;;;;;8.73;8.10;;;;;;;;;;5058030;28;20630;-61
2023/05/28 12:55:59;;;;;;;11.33;8.53;;;;;;;;;;5057492;28;21059;-62
2023/05/28 12:58:27;;;;;;;9.17;8.03;;;;;;;;;;5061260;28;20620;-62
2023/05/28 13:00:55;;;;;;;9.30;8.40;;;;;;;;;;5073264;28;20963;-62
2023/05/28 13:03:25;;;;;;;11.33;8.60;;;;;;;;;;5073417;28;20667;-62
2023/05/28 13:05:53;;;;;;;9.20;8.30;;;;;;;;;;5069605;28;20632;-62
2023/05/28 13:08:22;;;;;;;8.80;8.00;;;;;;;;;;5057322;28;20661;-62
2023/05/28 13:10:50;;;;;;;9.47;8.40;;;;;;;;;;5067626;28;20658;-62
2023/05/28 13:13:18;;;;;;;9.20;8.20;;;;;;;;;;5056552;28;20635;-62
2023/05/28 13:15:46;;;;;;;8.73;8.00;;;;;;;;;;5056369;28;20652;-62
2023/05/28 13:18:14;;;;;;;8.40;7.60;;;;;;;;;;5056665;28;20615;-62
2023/05/28 13:20:44;;;;;;;8.80;8.10;;;;;;;;;;5055971;28;21273;-62
2023/05/28 13:23:15;;;;;;;8.90;8.10;;;;;;;;;;5063446;28;20619;-62
2023/05/28 13:25:43;;;;;;;9.80;8.43;;;;;;;;;;5067811;28;20591;-62
2023/05/28 13:28:12;;;;;;;9.27;8.57;;;;;;;;;;5068651;28;20660;-62
2023/05/28 13:30:40;;;;;;;8.97;8.27;;;;;;;;;;5061105;28;20627;-63
2023/05/28 13:33:08;;;;;;;10.97;8.13;;;;;;;;;;5056337;28;20625;-62
2023/05/28 13:35:36;;;;;;;9.43;8.73;;;;;;;;;;5064425;28;20622;-63
2023/05/28 13:38:06;;;;;;;8.70;8.00;;;;;;;;;;5056351;28;20607;-61
2023/05/28 13:40:34;;;;;;;9.70;8.90;;;;;;;;;;5056649;28;20950;-62
2023/05/28 13:43:03;;;;;;;11.33;8.57;;;;;;;;;;5074132;28;20618;-61
2023/05/28 13:45:31;;;;;;;9.67;8.67;;;;;;;;;;5074603;28;20643;-61
2023/05/28 13:47:59;;;;;;;9.30;8.53;;;;;;;;;;5074816;28;20646;-62
2023/05/28 13:50:28;;;;;;;8.18;7.57;;;;;;;;;;5073280;28;20739;-63
2023/05/28 13:52:57;;;;;;;9.40;8.50;;;;;;;;;;5064618;28;20233;-62
2023/05/28 13:55:26;;;;;;;9.50;8.60;;;;;;;;;;5056243;28;21105;-62
2023/05/28 13:57:54;;;;;;;9.20;8.40;;;;;;;;;;5054177;28;20965;-62
2023/05/28 14:00:23;;;;;;;9.80;8.53;;;;;;;;;;5053556;28;21000;-64
2023/05/28 14:02:51;;;;;;;9.60;8.53;;;;;;;;;;5053364;28;20626;-62
2023/05/28 14:05:19;;;;;;;9.53;8.83;;;;;;;;;;5053295;28;21050;-63
2023/05/28 14:07:48;;;;;;;9.07;8.47;;;;;;;;;;5052501;28;21193;-64
2023/05/28 14:10:16;;;;;;;9.80;8.90;;;;;;;;;;5054191;28;20673;-63
2023/05/28 14:12:52;;;;;;;9.30;8.50;;;;;;;;;;5073068;28;20978;-64
2023/05/28 14:15:20;;;;;;;9.53;8.63;;;;;;;;;;5062685;28;20607;-64
2023/05/28 14:17:48;;;;;;;9.87;9.20;;;;;;;;;;5062941;28;20641;-66
2023/05/28 14:20:17;;;;;;;9.20;8.40;;;;;;;;;;5060863;28;20633;-64
2023/05/28 14:22:45;;;;;;;9.30;8.40;;;;;;;;;;5067685;28;20987;-64
2023/05/28 14:25:13;;;;;;;9.27;8.67;;;;;;;;;;5055859;28;20630;-64
2023/05/28 14:27:42;;;;;;;9.03;8.33;;;;;;;;;;5066806;28;20630;-65
2023/05/28 14:30:12;;;;;;;15.37;14.07;;;;;;;;;;5061416;28;20686;-64
2023/05/28 14:32:40;;;;;;;10.00;9.10;;;;;;;;;;5064156;28;20599;-64
2023/05/28 14:35:09;;;;;;;9.37;8.67;;;;;;;;;;5074605;28;20622;-63
2023/05/28 14:37:37;;;;;;;9.53;8.13;;;;;;;;;;5066542;28;20621;-65
2023/05/28 14:40:06;;;;;;;11.10;8.33;;;;;;;;;;5053160;28;20635;-66
2023/05/28 14:42:35;;;;;;;9.00;8.20;;;;;;;;;;5053396;28;20615;-65
2023/05/28 14:45:03;;;;;;;11.03;9.93;;;;;;;;;;5066874;28;20992;-65
2023/05/28 14:47:32;;;;;;;9.53;8.83;;;;;;;;;;5072679;28;21191;-63
2023/05/28 14:50:01;;;;;;;13.73;9.50;;;;;;;;;;5063451;28;20997;-64
2023/05/28 14:52:30;;;;;;;11.20;8.43;;;;;;;;;;5065677;28;20611;-65
2023/05/28 14:54:59;;;;;;;9.30;8.50;;;;;;;;;;5063395;28;20634;-64
2023/05/28 14:57:28;;;;;;;9.70;9.07;;;;;;;;;;5060754;28;21161;-64